createdAt,value
2023-05-20T00:02:04.902Z,100577.44
2023-05-20T00:05:09.292Z,100583.00
2023-05-20T00:08:13.524Z,100581.75
2023-05-20T00:11:16.398Z,100578.59
2023-05-20T00:14:19.144Z,100575.31
2023-05-20T00:17:21.917Z,100575.59
2023-05-20T00:20:25.863Z,100569.50
2023-05-20T00:23:30.045Z,100576.38
2023-05-20T00:26:32.773Z,100572.88
2023-05-20T00:29:35.776Z,100571.28
2023-05-20T00:32:38.569Z,100573.56
2023-05-20T00:35:41.363Z,100565.13
2023-05-20T00:38:45.560Z,100567.03
2023-05-20T00:41:48.366Z,100563.66
2023-05-20T00:44:51.490Z,100570.25
2023-05-20T00:47:57.281Z,100566.72
2023-05-20T00:51:01.130Z,100563.13
2023-05-20T00:54:05.321Z,100558.28
2023-05-20T00:57:09.301Z,100564.03
2023-05-20T01:00:13.733Z,100563.25
2023-05-20T01:03:17.077Z,100553.66
2023-05-20T01:06:20.184Z,100564.38
2023-05-20T01:13:48.828Z,100559.25
2023-05-20T01:16:54.277Z,100562.78
2023-05-20T01:19:57.273Z,100556.72
2023-05-20T01:23:02.316Z,100554.47
2023-05-20T01:26:06.521Z,100560.19
2023-05-20T01:29:09.335Z,100553.25
2023-05-20T01:32:13.692Z,100561.63
2023-05-20T01:35:18.047Z,100543.22
2023-05-20T01:38:24.410Z,100560.81
2023-05-20T01:41:28.770Z,100561.63
2023-05-20T01:44:31.939Z,100537.47
2023-05-20T01:47:34.918Z,100548.69
2023-05-20T01:50:37.645Z,100553.88
2023-05-20T01:53:41.798Z,100546.31
2023-05-20T01:56:46.757Z,100545.03
2023-05-20T01:59:49.812Z,100543.75
2023-05-20T02:02:52.990Z,100545.34
2023-05-20T02:05:55.838Z,100539.69
2023-05-20T02:09:00.366Z,100543.75
2023-05-20T02:12:03.196Z,100536.47
2023-05-20T02:15:07.409Z,100541.59
2023-05-20T02:18:12.548Z,100538.72
2023-05-20T02:21:15.357Z,100529.56
2023-05-20T02:24:21.132Z,100534.94
2023-05-20T02:27:23.876Z,100540.22
2023-05-20T02:30:28.241Z,100538.19
2023-05-20T02:33:30.998Z,100526.47
2023-05-20T02:36:33.788Z,100524.50
2023-05-20T02:39:37.890Z,100519.06
2023-05-20T02:42:42.180Z,100520.75
2023-05-20T02:45:45.170Z,100516.28
2023-05-20T02:48:48.009Z,100511.72
2023-05-20T02:51:50.946Z,100516.13
2023-05-20T02:54:55.122Z,100489.22
2023-05-20T02:57:57.953Z,100507.69
2023-05-20T03:01:00.998Z,100508.84
2023-05-20T03:04:04.718Z,100508.72
2023-05-20T03:07:09.032Z,100508.84
2023-05-20T03:10:13.566Z,100506.13
2023-05-20T03:13:16.490Z,100513.31
2023-05-20T03:16:19.356Z,100508.84
2023-05-20T03:19:22.180Z,100512.50
2023-05-20T03:22:24.973Z,100510.69
2023-05-20T03:25:29.636Z,100512.44
2023-05-20T03:28:54.676Z,100515.94
2023-05-20T03:31:57.391Z,100518.56
2023-05-20T03:35:00.192Z,100518.56
2023-05-20T03:38:03.167Z,100513.94
2023-05-20T03:41:07.285Z,100510.25
2023-05-20T03:44:09.989Z,100513.94
2023-05-20T03:47:12.740Z,100513.94
2023-05-20T03:50:15.587Z,100516.50
2023-05-20T03:53:20.221Z,100518.50
2023-05-20T03:56:24.644Z,100509.47
2023-05-20T03:59:27.373Z,100509.47
2023-05-20T04:02:30.965Z,100506.72
2023-05-20T04:05:34.415Z,100510.25
2023-05-20T04:08:37.651Z,100503.06
2023-05-20T04:11:41.714Z,100500.19
2023-05-20T04:14:44.413Z,100496.47
2023-05-20T04:17:48.564Z,100485.41
2023-05-20T04:20:56.516Z,100502.47
2023-05-20T04:23:59.281Z,100504.06
2023-05-20T04:27:03.438Z,100502.94
2023-05-20T04:30:08.082Z,100509.97
2023-05-20T04:33:11.260Z,100503.56
2023-05-20T04:36:16.604Z,100499.13
2023-05-20T04:39:20.605Z,100505.88
2023-05-20T04:42:24.839Z,100505.53
2023-05-20T04:45:27.719Z,100505.19
2023-05-20T04:48:30.473Z,100507.66
2023-05-20T04:51:34.207Z,100505.66
2023-05-20T04:54:36.966Z,100502.81
2023-05-20T04:57:42.213Z,100495.34
2023-05-20T05:00:46.067Z,100488.59
2023-05-20T05:03:48.763Z,100491.31
2023-05-20T05:06:52.030Z,100496.41
2023-05-20T05:09:54.787Z,100498.78
2023-05-20T05:12:58.904Z,100492.09
2023-05-20T05:16:02.455Z,100489.19
2023-05-20T05:19:05.299Z,100488.13
2023-05-20T05:22:08.089Z,100478.81
2023-05-20T05:25:12.076Z,100468.44
2023-05-20T05:28:16.134Z,100473.59
2023-05-20T05:31:18.950Z,100474.97
2023-05-20T05:34:22.502Z,100466.25
2023-05-20T05:37:25.397Z,100466.41
2023-05-20T05:40:28.427Z,100466.00
2023-05-20T05:43:32.669Z,100461.97
2023-05-20T05:46:35.799Z,100459.94
2023-05-20T05:49:38.579Z,100441.88
2023-05-20T05:52:41.426Z,100444.19
2023-05-20T05:55:44.126Z,100439.34
2023-05-20T05:58:48.693Z,100426.28
2023-05-20T06:01:51.458Z,100415.00
2023-05-20T06:04:54.524Z,100413.06
2023-05-20T06:07:57.555Z,100421.88
2023-05-20T06:11:00.256Z,100409.75
2023-05-20T06:14:05.081Z,100398.88
2023-05-20T06:17:08.022Z,100398.41
2023-05-20T06:20:11.496Z,100389.38
2023-05-20T06:23:14.332Z,100398.59
2023-05-20T06:26:17.194Z,100404.09
2023-05-20T06:29:21.710Z,100392.78
2023-05-20T06:32:24.461Z,100388.78
2023-05-20T06:35:27.271Z,100387.66
2023-05-20T06:38:30.049Z,100381.31
2023-05-20T06:41:32.819Z,100373.44
2023-05-20T06:44:37.002Z,100380.81
2023-05-20T06:47:39.889Z,100373.09
2023-05-20T06:50:42.688Z,100382.19
2023-05-20T06:53:45.583Z,100383.66
2023-05-20T06:56:48.811Z,100383.78
2023-05-20T06:59:53.058Z,100383.31
2023-05-20T07:02:56.158Z,100388.19
2023-05-20T07:05:59.175Z,100376.38
2023-05-20T07:09:02.181Z,100377.38
2023-05-20T07:12:05.318Z,100376.25
2023-05-20T07:15:10.719Z,100376.75
2023-05-20T07:18:13.599Z,100376.50
2023-05-20T07:21:16.530Z,100369.06
2023-05-20T07:24:21.667Z,100374.09
2023-05-20T07:27:24.530Z,100364.75
2023-05-20T07:30:29.034Z,100357.91
2023-05-20T07:33:34.737Z,100354.63
2023-05-20T07:36:38.302Z,100356.78
2023-05-20T07:39:41.290Z,100339.34
2023-05-20T07:42:44.133Z,100355.50
2023-05-20T07:45:48.620Z,100351.88
2023-05-20T07:48:51.908Z,100342.47
2023-05-20T07:51:54.633Z,100331.84
2023-05-20T07:54:57.355Z,100345.94
2023-05-20T07:58:00.114Z,100334.72
2023-05-20T08:01:04.210Z,100344.16
2023-05-20T08:04:07.026Z,100337.97
2023-05-20T08:07:09.905Z,100340.22
2023-05-20T08:10:13.675Z,100336.34
2023-05-20T08:13:16.438Z,100359.06
2023-05-20T08:16:22.428Z,100361.69
2023-05-20T08:19:25.358Z,100365.59
2023-05-20T08:22:28.257Z,100370.13
2023-05-20T08:25:31.280Z,100366.38
2023-05-20T08:28:34.298Z,100363.44
2023-05-20T08:31:38.521Z,100356.81
2023-05-20T08:34:42.786Z,100350.50
2023-05-20T08:37:45.505Z,100355.06
2023-05-20T08:40:53.100Z,100348.47
2023-05-20T08:43:56.134Z,100364.00
2023-05-20T08:47:00.638Z,100359.91
2023-05-20T08:50:04.038Z,100358.75
2023-05-20T08:53:07.329Z,100354.91
2023-05-20T08:56:12.709Z,100341.91
2023-05-20T08:59:16.138Z,100344.66
2023-05-20T09:02:20.146Z,100335.94
2023-05-20T09:05:23.650Z,100324.22
2023-05-20T09:08:27.297Z,100313.75
2023-05-20T09:11:31.071Z,100318.72
2023-05-20T09:14:33.744Z,100317.97
2023-05-20T09:17:38.551Z,100323.97
2023-05-20T09:20:41.863Z,100316.22
2023-05-20T09:23:49.105Z,100313.75
2023-05-20T09:26:52.263Z,100318.00
2023-05-20T09:29:55.179Z,100312.03
2023-05-20T09:33:01.115Z,100307.50
2023-05-20T09:36:05.890Z,100308.50
2023-05-20T09:39:10.801Z,100307.03
2023-05-20T09:42:19.344Z,100312.28
2023-05-20T09:45:23.278Z,100309.25
2023-05-20T09:48:28.534Z,100306.00
2023-05-20T09:51:32.401Z,100300.25
2023-05-20T09:54:37.493Z,100299.00
2023-05-20T09:57:40.266Z,100302.72
2023-05-20T10:00:43.106Z,100309.22
2023-05-20T10:03:47.503Z,100294.94
2023-05-20T10:07:30.574Z,100296.19
2023-05-20T10:10:48.536Z,100303.91
2023-05-20T10:14:09.035Z,100295.22
2023-05-20T10:17:18.437Z,100276.94
2023-05-20T10:20:23.052Z,100281.34
2023-05-20T10:23:29.744Z,100271.69
2023-05-20T10:26:36.570Z,100263.78
2023-05-20T10:32:56.871Z,100253.19
2023-05-20T10:36:03.010Z,100247.16
2023-05-20T10:39:05.854Z,100244.38
2023-05-20T10:42:09.469Z,100237.13
2023-05-20T10:45:13.243Z,100233.38
2023-05-20T10:48:22.424Z,100236.06
2023-05-20T10:51:29.604Z,100236.72
2023-05-20T10:54:37.017Z,100238.81
2023-05-20T10:57:39.834Z,100230.19
2023-05-20T11:00:45.031Z,100233.28
2023-05-20T11:03:48.459Z,100242.22
2023-05-20T11:06:54.206Z,100231.47
2023-05-20T11:09:57.523Z,100241.41
2023-05-20T11:13:02.166Z,100230.75
2023-05-20T11:16:06.894Z,100213.03
2023-05-20T11:19:10.338Z,100220.75
2023-05-20T11:22:14.679Z,100220.03
2023-05-20T11:25:18.798Z,100212.50
2023-05-20T11:28:22.732Z,100202.66
2023-05-20T11:31:26.929Z,100200.03
2023-05-20T11:34:35.333Z,100197.44
2023-05-20T11:37:39.394Z,100201.38
2023-05-20T11:40:52.784Z,100190.78
2023-05-20T11:43:59.529Z,100184.81
2023-05-20T11:47:03.760Z,100187.00
2023-05-20T11:50:10.650Z,100174.94
2023-05-20T11:53:17.797Z,100175.97
2023-05-20T11:56:21.601Z,100169.00
2023-05-20T11:59:28.279Z,100173.31
2023-05-20T12:02:31.484Z,100175.66
2023-05-20T12:05:34.333Z,100173.91
2023-05-20T12:08:38.481Z,100170.53
2023-05-20T12:11:42.030Z,100157.09
2023-05-20T12:14:45.455Z,100166.50
2023-05-20T12:17:49.992Z,100169.41
2023-05-20T12:20:52.809Z,100134.13
2023-05-20T12:23:58.164Z,100146.97
2023-05-20T12:27:01.133Z,100144.69
2023-05-20T12:30:04.553Z,100135.16
2023-05-20T12:33:07.634Z,100139.50
2023-05-20T12:36:10.546Z,100130.69
2023-05-20T12:39:15.128Z,100127.94
2023-05-20T12:42:17.858Z,100137.06
2023-05-20T12:45:20.544Z,100129.34
2023-05-20T12:48:23.848Z,100141.72
2023-05-20T12:51:26.958Z,100128.66
2023-05-20T12:54:31.441Z,100124.06
2023-05-20T12:57:34.173Z,100110.53
2023-05-20T13:00:37.433Z,100111.03
2023-05-20T13:03:40.416Z,100103.59
2023-05-20T13:06:43.926Z,100094.81
2023-05-20T13:09:47.959Z,100106.31
2023-05-20T13:12:51.026Z,100105.94
2023-05-20T13:15:53.729Z,100098.59
2023-05-20T13:18:56.708Z,100102.63
2023-05-20T13:21:59.505Z,100101.00
2023-05-20T13:25:04.398Z,100098.03
2023-05-20T13:28:07.641Z,100097.34
2023-05-20T13:31:12.462Z,100088.53
2023-05-20T13:34:15.264Z,100096.66
2023-05-20T13:37:18.036Z,100090.28
2023-05-20T13:40:22.491Z,100080.47
2023-05-20T13:43:25.834Z,100101.34
2023-05-20T13:46:28.562Z,100097.78
2023-05-20T13:49:31.925Z,100091.53
2023-05-20T13:52:34.699Z,100077.69
2023-05-20T13:55:38.863Z,100080.00
2023-05-20T13:58:42.135Z,100073.19
2023-05-20T14:01:45.841Z,100077.00
2023-05-20T14:04:48.893Z,100072.69
2023-05-20T14:07:52.058Z,100058.81
2023-05-20T14:10:56.179Z,100055.50
2023-05-20T14:13:59.168Z,100049.75
2023-05-20T14:17:02.043Z,100050.88
2023-05-20T14:20:07.042Z,100056.56
2023-05-20T14:23:09.945Z,100057.00
2023-05-20T14:26:14.618Z,100056.09
2023-05-20T14:29:17.749Z,100050.03
2023-05-20T14:32:20.541Z,100056.94
2023-05-20T14:35:23.986Z,100049.75
2023-05-20T14:38:27.504Z,100038.78
2023-05-20T14:41:31.939Z,100037.53
2023-05-20T14:44:34.832Z,100023.56
2023-05-20T14:47:40.085Z,100022.50
2023-05-20T14:50:43.119Z,100026.19
2023-05-20T14:53:46.000Z,100009.69
2023-05-20T14:56:50.084Z,100021.75
2023-05-20T14:59:53.308Z,100013.19
2023-05-20T15:02:56.077Z,100023.94
2023-05-20T15:05:59.198Z,100025.47
2023-05-20T15:09:01.971Z,100018.16
2023-05-20T15:12:07.132Z,100021.31
2023-05-20T15:15:10.871Z,100009.31
2023-05-20T15:18:14.238Z,100011.78
2023-05-20T15:21:17.968Z,100012.94
2023-05-20T15:24:20.948Z,100002.69
2023-05-20T15:27:25.462Z,99998.22
2023-05-20T15:30:28.180Z,99992.47
2023-05-20T15:33:30.995Z,99986.34
2023-05-20T15:36:33.844Z,99993.97
2023-05-20T15:39:38.335Z,99973.06
2023-05-20T15:42:42.492Z,99990.31
2023-05-20T15:45:46.021Z,99985.22
2023-05-20T15:48:48.861Z,99987.38
2023-05-20T15:52:02.339Z,99980.31
2023-05-20T15:55:09.725Z,99983.75
2023-05-20T15:58:14.146Z,100000.41
2023-05-20T16:01:17.482Z,99995.59
2023-05-20T16:04:20.788Z,99998.91
2023-05-20T16:07:23.779Z,99994.16
2023-05-20T16:10:32.649Z,99990.53
2023-05-20T16:13:37.745Z,99986.16
2023-05-20T16:16:40.835Z,99995.03
2023-05-20T16:19:43.630Z,100000.50
2023-05-20T16:22:46.896Z,100003.03
2023-05-20T16:25:49.592Z,100003.66
2023-05-20T16:28:53.767Z,100002.00
2023-05-20T16:31:57.151Z,100002.88
2023-05-20T16:35:00.062Z,100006.88
2023-05-20T16:38:03.092Z,100004.59
2023-05-20T16:41:06.045Z,100014.00
2023-05-20T16:44:10.350Z,100014.47
2023-05-20T16:47:13.396Z,100013.59
2023-05-20T16:50:16.142Z,100016.66
2023-05-20T16:53:18.930Z,100016.97
2023-05-20T16:56:22.997Z,100020.31
2023-05-20T16:59:30.084Z,100027.63
2023-05-20T17:02:32.857Z,100018.91
2023-05-20T17:05:35.624Z,100006.81
2023-05-20T17:08:39.109Z,100023.53
2023-05-20T17:11:41.820Z,100025.09
2023-05-20T17:14:46.061Z,100019.19
2023-05-20T17:17:48.779Z,100026.91
2023-05-20T17:20:51.739Z,100023.75
2023-05-20T17:23:55.017Z,100027.41
2023-05-20T17:26:57.753Z,100026.09
2023-05-20T17:30:02.313Z,100034.97
2023-05-20T17:33:05.080Z,100033.41
2023-05-20T17:36:08.315Z,100038.97
2023-05-20T17:39:11.071Z,100043.19
2023-05-20T17:42:13.947Z,100042.22
2023-05-20T17:45:18.101Z,100051.13
2023-05-20T17:48:21.105Z,100050.44
2023-05-20T17:51:23.980Z,100047.03
2023-05-20T17:54:26.974Z,100043.53
2023-05-20T17:57:29.732Z,100036.16
2023-05-20T18:00:43.138Z,100036.13
2023-05-20T18:03:46.259Z,100048.69
2023-05-20T18:06:49.122Z,100056.75
2023-05-20T18:09:51.868Z,100053.66
2023-05-20T18:12:54.554Z,100056.91
2023-05-20T18:15:58.709Z,100055.50
2023-05-20T18:19:02.736Z,100066.06
2023-05-20T18:22:07.210Z,100072.66
2023-05-20T18:25:11.615Z,100056.13
2023-05-20T18:28:14.321Z,100070.50
2023-05-20T18:31:18.562Z,100063.09
2023-05-20T18:34:21.334Z,100066.59
2023-05-20T18:37:24.145Z,100073.50
2023-05-20T18:40:28.127Z,100075.25
2023-05-20T18:43:30.972Z,100077.53
2023-05-20T18:46:35.199Z,100076.66
2023-05-20T18:49:37.966Z,100074.47
2023-05-20T18:52:40.779Z,100074.31
2023-05-20T18:55:43.614Z,100070.28
2023-05-20T18:58:46.373Z,100067.66
2023-05-20T19:01:50.510Z,100082.00
2023-05-20T19:04:53.180Z,100086.13
2023-05-20T19:07:56.162Z,100095.59
2023-05-20T19:10:59.014Z,100076.50
2023-05-20T19:14:01.993Z,100096.94
2023-05-20T19:17:06.688Z,100097.94
2023-05-20T19:20:10.488Z,100102.91
2023-05-20T19:23:13.226Z,100103.44
2023-05-20T19:26:16.034Z,100112.16
2023-05-20T19:29:18.737Z,100107.63
2023-05-20T19:32:22.818Z,100112.03
2023-05-20T19:35:25.627Z,100120.41
2023-05-20T19:38:28.438Z,100119.31
2023-05-20T19:41:31.743Z,100129.97
2023-05-20T19:44:34.478Z,100126.25
2023-05-20T19:47:39.023Z,100133.25
2023-05-20T19:50:41.910Z,100131.63
2023-05-20T19:53:44.732Z,100137.28
2023-05-20T19:56:47.507Z,100141.56
2023-05-20T19:59:52.292Z,100141.31
2023-05-20T20:02:57.962Z,100138.22
2023-05-20T20:06:00.970Z,100139.53
2023-05-20T20:09:04.831Z,100140.06
2023-05-20T20:12:09.276Z,100143.78
2023-05-20T20:15:12.499Z,100140.19
2023-05-20T20:18:17.220Z,100139.81
2023-05-20T20:21:20.151Z,100139.31
2023-05-20T20:24:24.117Z,100143.06
2023-05-20T20:27:26.984Z,100158.38
2023-05-20T20:30:29.737Z,100151.50
2023-05-20T20:33:33.815Z,100153.50
2023-05-20T20:36:36.772Z,100150.25
2023-05-20T20:39:39.488Z,100150.50
2023-05-20T20:42:44.951Z,100153.59
2023-05-20T20:45:47.827Z,100133.22
2023-05-20T20:48:51.961Z,100149.81
2023-05-20T20:51:57.136Z,100155.16
2023-05-20T20:55:00.267Z,100143.91
2023-05-20T20:58:05.255Z,100137.16
2023-05-20T21:01:10.076Z,100142.50
2023-05-20T21:04:14.529Z,100139.38
2023-05-20T21:07:18.494Z,100141.59
2023-05-20T21:10:21.295Z,100142.59
2023-05-20T21:13:24.055Z,100134.59
2023-05-20T21:16:26.751Z,100136.84
2023-05-20T21:19:30.917Z,100133.59
2023-05-20T21:22:33.827Z,100128.44
2023-05-20T21:25:36.834Z,100120.16
2023-05-20T21:28:39.826Z,100132.75
2023-05-20T21:31:42.592Z,100127.53
2023-05-20T21:34:46.690Z,100124.25
2023-05-20T21:37:49.937Z,100098.66
2023-05-20T21:40:52.702Z,100125.72
2023-05-20T21:43:55.487Z,100121.59
2023-05-20T21:46:58.294Z,100118.84
2023-05-20T21:50:03.321Z,100125.44
2023-05-20T21:53:06.320Z,100115.72
2023-05-20T21:56:09.084Z,100121.41
2023-05-20T21:59:11.858Z,100118.03
2023-05-20T22:02:14.567Z,100124.84
2023-05-20T22:05:19.759Z,100120.56
2023-05-20T22:08:22.682Z,100120.66
2023-05-20T22:11:26.380Z,100115.41
2023-05-20T22:14:29.543Z,100107.97
2023-05-20T22:17:34.073Z,100110.16
2023-05-20T22:20:38.519Z,100103.97
2023-05-20T22:23:41.373Z,100101.53
2023-05-20T22:26:44.325Z,100092.72
2023-05-20T22:29:47.434Z,100097.63
2023-05-20T22:32:50.376Z,100101.50
2023-05-20T22:35:54.570Z,100087.50
2023-05-20T22:38:57.752Z,100085.97
2023-05-20T22:42:00.556Z,100084.47
2023-05-20T22:45:04.369Z,100078.34
2023-05-20T22:48:07.239Z,100084.88
2023-05-20T22:51:11.611Z,100086.00
2023-05-20T22:54:14.467Z,100081.09
2023-05-20T22:57:17.369Z,100080.56
2023-05-20T23:00:20.166Z,100085.28
2023-05-20T23:03:23.399Z,100081.88
2023-05-20T23:06:27.588Z,100073.38
2023-05-20T23:09:30.289Z,100081.91
2023-05-20T23:12:33.097Z,100074.03
2023-05-20T23:15:36.715Z,100069.88
2023-05-20T23:18:40.002Z,100064.63
2023-05-20T23:21:44.146Z,100054.78
2023-05-20T23:24:46.873Z,100055.88
2023-05-20T23:27:49.632Z,100045.38
2023-05-20T23:30:52.449Z,100048.84
2023-05-20T23:33:57.875Z,100049.97
2023-05-20T23:37:02.384Z,100043.84
2023-05-20T23:40:09.072Z,100054.78
2023-05-20T23:43:11.790Z,100047.44
2023-05-20T23:46:14.597Z,100052.81
2023-05-20T23:49:18.427Z,100049.84
2023-05-20T23:52:22.530Z,100051.50
2023-05-20T23:55:25.616Z,100051.50
2023-05-20T23:58:28.321Z,100042.41
